createdAt,value
2018-02-10T00:00:38.613Z,59.47
2018-02-10T00:03:06.110Z,60.00
2018-02-10T00:05:33.666Z,61.00
2018-02-10T00:08:01.205Z,61.63
2018-02-10T00:10:28.783Z,62.13
2018-02-10T00:12:56.313Z,60.47
2018-02-10T00:15:23.840Z,59.33
2018-02-10T00:17:51.396Z,61.83
2018-02-10T00:20:18.921Z,61.67
2018-02-10T00:22:50.892Z,65.47
2018-02-10T00:25:18.459Z,61.47
2018-02-10T00:27:46.991Z,62.17
2018-02-10T00:30:14.756Z,62.23
2018-02-10T00:32:42.492Z,63.73
2018-02-10T00:35:10.096Z,61.57
2018-02-10T00:37:37.656Z,62.07
2018-02-10T00:40:05.216Z,62.90
2018-02-10T00:42:32.760Z,62.97
2018-02-10T00:45:00.308Z,63.23
2018-02-10T00:47:27.839Z,63.63
2018-02-10T00:49:55.551Z,65.43
2018-02-10T00:52:23.110Z,63.23
2018-02-10T00:54:50.663Z,62.53
2018-02-10T00:57:18.202Z,63.67
2018-02-10T00:59:45.719Z,62.83
2018-02-10T01:02:13.242Z,66.00
2018-02-10T01:04:40.786Z,66.17
2018-02-10T01:07:08.341Z,64.87
2018-02-10T01:09:35.869Z,62.60
2018-02-10T01:12:03.409Z,65.97
2018-02-10T01:14:30.933Z,67.23
2018-02-10T01:16:58.475Z,64.33
2018-02-10T01:19:26.181Z,69.73
2018-02-10T01:21:53.714Z,64.23
2018-02-10T01:24:21.253Z,64.70
2018-02-10T01:26:48.787Z,65.97
2018-02-10T01:29:16.324Z,65.20
2018-02-10T01:31:43.856Z,63.67
2018-02-10T01:34:11.389Z,66.87
2018-02-10T01:36:38.905Z,65.60
2018-02-10T01:39:06.492Z,66.50
2018-02-10T01:41:34.009Z,66.93
2018-02-10T01:44:01.553Z,65.23
2018-02-10T01:46:29.182Z,64.53
2018-02-10T01:48:56.778Z,62.50
2018-02-10T01:51:24.521Z,69.17
2018-02-10T01:53:52.090Z,63.37
2018-02-10T01:56:19.618Z,65.93
2018-02-10T01:58:47.280Z,65.47
2018-02-10T02:01:14.796Z,65.93
2018-02-10T02:03:42.317Z,81.68
2018-02-10T02:06:09.856Z,70.43
2018-02-10T02:08:37.413Z,65.30
2018-02-10T02:11:04.973Z,64.37
2018-02-10T02:13:32.540Z,64.87
2018-02-10T02:16:00.061Z,66.73
2018-02-10T02:18:27.597Z,64.73
2018-02-10T02:20:55.127Z,67.97
2018-02-10T02:23:22.650Z,64.37
2018-02-10T02:25:50.176Z,65.90
2018-02-10T02:28:17.716Z,64.07
2018-02-10T02:30:45.245Z,63.53
2018-02-10T02:33:12.777Z,66.23
2018-02-10T02:35:40.304Z,65.43
2018-02-10T02:38:07.829Z,65.73
2018-02-10T02:40:35.353Z,68.90
2018-02-10T02:43:02.983Z,64.80
2018-02-10T02:45:30.510Z,66.00
2018-02-10T02:47:58.035Z,63.60
2018-02-10T02:50:25.565Z,67.03
2018-02-10T02:52:53.105Z,65.80
2018-02-10T02:55:20.657Z,67.97
2018-02-10T02:57:48.203Z,66.63
2018-02-10T03:00:15.725Z,67.70
2018-02-10T03:02:43.255Z,69.57
2018-02-10T03:05:10.781Z,68.57
2018-02-10T03:07:38.306Z,69.97
2018-02-10T03:10:05.831Z,69.37
2018-02-10T03:12:33.361Z,69.97
2018-02-10T03:15:00.882Z,67.23
2018-02-10T03:17:28.410Z,66.87
2018-02-10T03:19:55.973Z,65.73
2018-02-10T03:22:23.501Z,67.27
2018-02-10T03:24:51.032Z,71.90
2018-02-10T03:27:18.562Z,65.77
2018-02-10T03:29:46.107Z,66.83
2018-02-10T03:32:13.628Z,66.67
2018-02-10T03:34:41.157Z,64.10
2018-02-10T03:37:08.683Z,63.57
2018-02-10T03:39:36.199Z,68.80
2018-02-10T03:42:03.738Z,64.70
2018-02-10T03:44:31.261Z,67.50
2018-02-10T03:46:58.836Z,69.40
2018-02-10T03:49:26.445Z,67.40
2018-02-10T03:51:53.978Z,65.80
2018-02-10T03:54:21.500Z,67.60
2018-02-10T03:56:49.057Z,69.00
2018-02-10T03:59:16.597Z,65.27
2018-02-10T04:01:44.148Z,64.60
2018-02-10T04:04:11.669Z,65.83
2018-02-10T04:06:39.194Z,65.27
2018-02-10T04:09:06.733Z,64.17
2018-02-10T04:11:34.260Z,67.53
2018-02-10T04:14:01.802Z,64.67
2018-02-10T04:16:29.625Z,65.27
2018-02-10T04:18:57.164Z,66.27
2018-02-10T04:21:24.688Z,64.03
2018-02-10T04:23:52.285Z,67.30
2018-02-10T04:26:19.804Z,66.47
2018-02-10T04:28:47.335Z,62.83
2018-02-10T04:31:14.860Z,65.50
2018-02-10T04:33:42.393Z,64.87
2018-02-10T04:36:09.917Z,64.90
2018-02-10T04:38:37.645Z,66.90
2018-02-10T04:41:05.227Z,66.40
2018-02-10T04:43:32.761Z,63.30
2018-02-10T04:46:00.329Z,65.97
2018-02-10T04:48:27.853Z,64.23
2018-02-10T04:50:55.441Z,64.10
2018-02-10T04:53:22.965Z,67.60
2018-02-10T04:55:50.495Z,65.30
2018-02-10T04:58:18.112Z,65.70
2018-02-10T05:00:45.686Z,67.30
2018-02-10T05:03:13.253Z,65.87
2018-02-10T05:05:40.798Z,66.83
2018-02-10T05:08:08.323Z,63.70
2018-02-10T05:10:35.849Z,62.47
2018-02-10T05:13:03.487Z,63.17
2018-02-10T05:15:31.044Z,64.63
2018-02-10T05:17:58.564Z,64.43
2018-02-10T05:20:26.114Z,63.47
2018-02-10T05:22:53.653Z,64.97
2018-02-10T05:25:21.210Z,65.33
2018-02-10T05:27:48.750Z,66.07
2018-02-10T05:30:16.327Z,67.77
2018-02-10T05:32:43.868Z,64.40
2018-02-10T05:35:11.393Z,62.10
2018-02-10T05:37:38.937Z,63.30
2018-02-10T05:40:06.542Z,64.73
2018-02-10T05:42:34.074Z,63.50
2018-02-10T05:45:01.588Z,64.90
2018-02-10T05:47:29.124Z,65.87
2018-02-10T05:49:56.664Z,61.50
2018-02-10T05:52:24.201Z,66.73
2018-02-10T05:54:51.753Z,63.17
2018-02-10T05:57:19.286Z,65.63
2018-02-10T05:59:46.828Z,63.10
2018-02-10T06:02:14.380Z,62.00
2018-02-10T06:04:41.909Z,63.30
2018-02-10T06:07:09.462Z,61.60
2018-02-10T06:09:37.005Z,63.80
2018-02-10T06:12:04.542Z,65.07
2018-02-10T06:14:32.076Z,60.70
2018-02-10T06:16:59.641Z,62.43
2018-02-10T06:19:27.178Z,63.43
2018-02-10T06:21:54.718Z,62.80
2018-02-10T06:24:22.302Z,64.50
2018-02-10T06:26:49.881Z,64.67
2018-02-10T06:29:17.411Z,63.27
2018-02-10T06:31:44.940Z,63.40
2018-02-10T06:34:12.474Z,64.17
2018-02-10T06:36:40.020Z,64.83
2018-02-10T06:39:07.553Z,62.97
2018-02-10T06:41:35.084Z,62.60
2018-02-10T06:44:02.637Z,61.77
2018-02-10T06:46:30.157Z,63.13
2018-02-10T06:48:57.672Z,63.90
2018-02-10T06:51:25.247Z,65.23
2018-02-10T06:53:52.781Z,60.87
2018-02-10T06:56:20.308Z,63.07
2018-02-10T06:58:47.850Z,61.67
2018-02-10T07:01:15.410Z,63.40
2018-02-10T07:03:42.940Z,63.80
2018-02-10T07:06:10.534Z,61.13
2018-02-10T07:08:38.094Z,62.87
2018-02-10T07:11:05.624Z,59.43
2018-02-10T07:13:33.151Z,61.10
2018-02-10T07:16:00.680Z,61.93
2018-02-10T07:18:28.202Z,61.17
2018-02-10T07:20:55.789Z,60.53
2018-02-10T07:23:23.316Z,61.80
2018-02-10T07:25:50.897Z,63.90
2018-02-10T07:28:18.483Z,61.17
2018-02-10T07:30:46.018Z,63.40
2018-02-10T07:33:13.535Z,60.60
2018-02-10T07:35:41.165Z,62.00
2018-02-10T07:38:08.696Z,62.53
2018-02-10T07:40:36.225Z,62.27
2018-02-10T07:43:03.777Z,61.10
2018-02-10T07:45:31.295Z,61.03
2018-02-10T07:47:58.825Z,61.90
2018-02-10T07:50:26.346Z,62.23
2018-02-10T07:52:53.977Z,61.43
2018-02-10T07:55:21.538Z,60.03
2018-02-10T07:57:49.195Z,59.30
2018-02-10T08:00:16.717Z,57.60
2018-02-10T08:02:44.278Z,59.23
2018-02-10T08:05:11.798Z,57.33
2018-02-10T08:07:39.329Z,59.40
2018-02-10T08:10:06.861Z,59.43
2018-02-10T08:12:34.385Z,57.63
2018-02-10T08:15:02.017Z,57.87
2018-02-10T08:17:29.552Z,59.87
2018-02-10T08:19:57.065Z,58.37
2018-02-10T08:22:24.589Z,57.10
2018-02-10T08:24:52.151Z,59.00
2018-02-10T08:27:19.683Z,58.50
2018-02-10T08:29:47.196Z,59.27
2018-02-10T08:32:14.726Z,57.90
2018-02-10T08:34:42.271Z,58.97
2018-02-10T08:37:09.808Z,58.97
2018-02-10T08:39:37.362Z,58.40
2018-02-10T08:42:04.923Z,55.90
2018-02-10T08:44:32.463Z,58.00
2018-02-10T08:47:00.000Z,59.37
2018-02-10T08:49:27.541Z,57.37
2018-02-10T08:51:55.056Z,57.63
2018-02-10T08:54:22.620Z,59.47
2018-02-10T08:56:50.220Z,56.73
2018-02-10T08:59:17.749Z,58.97
2018-02-10T09:01:45.278Z,59.20
2018-02-10T09:04:12.833Z,58.23
2018-02-10T09:06:40.347Z,59.23
2018-02-10T09:09:07.859Z,59.07
2018-02-10T09:11:35.485Z,59.87
2018-02-10T09:14:03.004Z,58.03
2018-02-10T09:16:30.553Z,59.77
2018-02-10T09:18:58.075Z,58.57
2018-02-10T09:21:25.595Z,58.33
2018-02-10T09:23:53.128Z,55.70
2018-02-10T09:26:20.674Z,60.30
2018-02-10T09:28:48.199Z,56.93
2018-02-10T09:31:15.725Z,56.23
2018-02-10T09:33:43.245Z,59.53
2018-02-10T09:36:10.852Z,58.63
2018-02-10T09:38:38.389Z,59.83
2018-02-10T09:41:05.929Z,59.63
2018-02-10T09:43:33.552Z,59.73
2018-02-10T09:46:01.113Z,57.00
2018-02-10T09:48:28.642Z,57.10
2018-02-10T09:50:56.199Z,57.77
2018-02-10T09:56:22.843Z,57.13
2018-02-10T09:58:50.356Z,55.73
2018-02-10T10:01:17.882Z,58.50
2018-02-10T10:03:45.407Z,57.60
2018-02-10T10:06:12.939Z,57.80
2018-02-10T10:08:40.465Z,57.53
2018-02-10T10:11:07.979Z,57.17
2018-02-10T10:13:35.505Z,55.37
2018-02-10T10:16:03.040Z,56.40
2018-02-10T10:18:30.555Z,56.40
2018-02-10T10:20:58.072Z,54.63
2018-02-10T10:23:25.615Z,54.60
2018-02-10T10:25:53.148Z,54.60
2018-02-10T10:28:20.671Z,52.33
2018-02-10T10:30:48.211Z,51.77
2018-02-10T10:33:15.725Z,54.73
2018-02-10T10:35:43.233Z,51.47
2018-02-10T10:38:10.752Z,52.27
2018-02-10T10:40:38.311Z,51.33
2018-02-10T10:43:05.846Z,50.80
2018-02-10T10:45:33.380Z,51.27
2018-02-10T10:48:00.910Z,50.13
2018-02-10T10:50:28.425Z,49.50
2018-02-10T10:52:55.958Z,49.00
2018-02-10T10:55:23.521Z,48.67
2018-02-10T10:57:51.119Z,49.37
2018-02-10T11:00:18.633Z,49.67
2018-02-10T11:02:46.169Z,48.57
2018-02-10T11:05:13.717Z,49.10
2018-02-10T11:07:41.281Z,47.37
2018-02-10T11:10:08.800Z,46.47
2018-02-10T11:12:36.332Z,46.37
2018-02-10T11:15:03.867Z,44.37
2018-02-10T11:17:31.406Z,43.70
2018-02-10T11:19:58.954Z,44.73
2018-02-10T11:22:26.504Z,44.67
2018-02-10T11:24:54.033Z,43.17
2018-02-10T11:27:21.597Z,42.27
2018-02-10T11:29:49.121Z,41.47
2018-02-10T11:32:16.652Z,43.00
2018-02-10T11:34:44.187Z,41.40
2018-02-10T11:37:11.702Z,41.90
2018-02-10T11:39:39.257Z,40.53
2018-02-10T11:42:06.775Z,43.17
2018-02-10T11:44:34.291Z,41.67
2018-02-10T11:47:01.804Z,42.17
2018-02-10T11:49:29.323Z,41.77
2018-02-10T11:51:56.857Z,42.20
2018-02-10T11:54:24.376Z,41.93
2018-02-10T11:56:52.085Z,40.17
2018-02-10T11:59:19.624Z,38.70
2018-02-10T12:01:47.161Z,39.70
2018-02-10T12:04:14.687Z,38.63
2018-02-10T12:06:42.198Z,38.87
2018-02-10T12:09:09.732Z,37.40
2018-02-10T12:11:37.968Z,37.20
2018-02-10T12:14:05.503Z,35.80
2018-02-10T12:16:33.031Z,35.80
2018-02-10T12:19:00.589Z,35.67
2018-02-10T12:21:28.121Z,36.00
2018-02-10T12:23:55.633Z,35.50
2018-02-10T12:26:23.197Z,36.53
2018-02-10T12:28:50.708Z,33.23
2018-02-10T12:31:18.232Z,33.03
2018-02-10T12:33:45.742Z,34.00
2018-02-10T12:36:13.306Z,33.43
2018-02-10T12:38:40.882Z,32.30
2018-02-10T12:41:08.584Z,33.70
2018-02-10T12:43:36.174Z,32.70
2018-02-10T12:46:03.676Z,33.30
2018-02-10T12:48:36.882Z,33.23
2018-02-10T12:51:04.397Z,34.20
2018-02-10T12:53:31.929Z,36.57
2018-02-10T12:55:59.646Z,36.87
2018-02-10T12:58:27.223Z,35.47
2018-02-10T13:00:54.745Z,34.50
2018-02-10T13:03:22.259Z,35.90
2018-02-10T13:05:49.774Z,34.73
2018-02-10T13:08:17.292Z,34.37
2018-02-10T13:10:44.840Z,33.87
2018-02-10T13:13:12.365Z,32.77
2018-02-10T13:15:39.895Z,35.43
2018-02-10T13:18:07.437Z,34.23
2018-02-10T13:20:34.952Z,32.50
2018-02-10T13:23:02.497Z,30.70
2018-02-10T13:25:30.026Z,26.23
2018-02-10T13:27:57.565Z,27.33
2018-02-10T13:30:25.096Z,28.60
2018-02-10T13:32:52.610Z,30.67
2018-02-10T13:35:20.144Z,32.20
2018-02-10T13:37:47.657Z,33.07
2018-02-10T13:40:15.190Z,32.03
2018-02-10T13:42:42.708Z,35.27
2018-02-10T13:45:10.216Z,36.30
2018-02-10T13:47:37.742Z,35.23
2018-02-10T13:50:05.271Z,36.40
2018-02-10T13:52:32.796Z,36.37
2018-02-10T13:55:00.305Z,38.77
2018-02-10T13:57:27.817Z,39.10
2018-02-10T13:59:55.336Z,37.10
2018-02-10T14:02:22.854Z,39.33
2018-02-10T14:04:50.385Z,38.33
2018-02-10T14:07:17.897Z,37.80
2018-02-10T14:09:45.408Z,38.20
2018-02-10T14:12:12.917Z,39.73
2018-02-10T14:14:40.432Z,38.33
2018-02-10T14:17:07.950Z,37.87
2018-02-10T14:19:35.467Z,36.93
2018-02-10T14:22:02.996Z,37.83
2018-02-10T14:24:30.512Z,39.97
2018-02-10T14:26:58.027Z,39.80
2018-02-10T14:29:25.542Z,38.40
2018-02-10T14:31:53.061Z,39.63
2018-02-10T14:34:20.597Z,37.07
2018-02-10T14:36:48.115Z,39.03
2018-02-10T14:39:15.644Z,38.03
2018-02-10T14:41:43.164Z,38.73
2018-02-10T14:44:10.696Z,37.90
2018-02-10T14:46:38.214Z,39.07
2018-02-10T14:49:05.751Z,40.27
2018-02-10T14:51:33.264Z,39.73
2018-02-10T14:54:00.795Z,39.23
2018-02-10T14:56:28.332Z,41.17
2018-02-10T14:58:55.861Z,40.37
2018-02-10T15:01:23.384Z,41.03
2018-02-10T15:03:50.900Z,39.90
2018-02-10T15:06:18.411Z,41.87
2018-02-10T15:08:45.924Z,40.93
2018-02-10T15:11:13.472Z,40.80
2018-02-10T15:13:40.987Z,40.10
2018-02-10T15:16:08.504Z,39.60
2018-02-10T15:18:36.034Z,42.20
2018-02-10T15:21:03.556Z,39.50
2018-02-10T15:23:31.085Z,39.53
2018-02-10T15:25:58.601Z,40.47
2018-02-10T15:28:26.136Z,39.03
2018-02-10T15:31:05.575Z,39.60
2018-02-10T15:33:45.019Z,38.00
2018-02-10T15:36:12.536Z,38.33
2018-02-10T15:38:40.065Z,40.50
2018-02-10T15:41:07.622Z,38.37
2018-02-10T15:43:35.156Z,39.13
2018-02-10T15:46:02.710Z,38.60
2018-02-10T15:48:30.232Z,38.93
2018-02-10T15:50:57.768Z,40.00
2018-02-10T15:53:25.292Z,39.60
2018-02-10T15:55:52.809Z,38.27
2018-02-10T15:58:20.336Z,37.27
2018-02-10T16:00:48.104Z,39.63
2018-02-10T16:03:15.629Z,39.00
2018-02-10T16:05:43.152Z,40.67
2018-02-10T16:08:10.738Z,41.03
2018-02-10T16:10:38.265Z,40.23
2018-02-10T16:13:05.801Z,41.43
2018-02-10T16:15:33.329Z,39.87
2018-02-10T16:18:00.849Z,40.00
2018-02-10T16:20:28.373Z,38.67
2018-02-10T16:22:55.887Z,39.40
2018-02-10T16:25:23.442Z,40.20
2018-02-10T16:27:50.988Z,41.17
2018-02-10T16:30:18.514Z,39.03
2018-02-10T16:32:46.046Z,38.90
2018-02-10T16:35:13.575Z,39.13
2018-02-10T16:37:41.096Z,39.30
2018-02-10T16:40:08.620Z,38.13
2018-02-10T16:42:36.140Z,37.80
2018-02-10T16:45:03.673Z,39.97
2018-02-10T16:47:31.196Z,38.57
2018-02-10T16:49:58.711Z,37.20
2018-02-10T16:52:26.244Z,37.73
2018-02-10T16:54:53.770Z,38.77
2018-02-10T16:57:21.292Z,37.80
2018-02-10T16:59:48.808Z,39.57
2018-02-10T17:02:16.345Z,38.10
2018-02-10T17:04:43.872Z,37.73
2018-02-10T17:07:11.404Z,37.20
2018-02-10T17:09:38.928Z,36.37
2018-02-10T17:12:06.443Z,36.77
2018-02-10T17:14:33.969Z,36.57
2018-02-10T17:17:01.510Z,38.73
2018-02-10T17:19:29.059Z,37.07
2018-02-10T17:21:56.586Z,36.70
2018-02-10T17:24:24.106Z,36.00
2018-02-10T17:26:51.645Z,36.70
2018-02-10T17:29:19.174Z,34.80
2018-02-10T17:31:46.709Z,36.47
2018-02-10T17:34:14.223Z,35.63
2018-02-10T17:36:41.740Z,35.03
2018-02-10T17:39:09.300Z,35.93
2018-02-10T17:41:36.788Z,36.40
2018-02-10T17:44:04.466Z,36.20
2018-02-10T17:46:31.989Z,35.17
2018-02-10T17:48:59.521Z,35.37
2018-02-10T17:51:27.067Z,35.23
2018-02-10T17:53:54.588Z,33.97
2018-02-10T17:56:22.115Z,33.77
2018-02-10T17:58:49.651Z,35.07
2018-02-10T18:01:17.171Z,34.50
2018-02-10T18:03:44.695Z,36.47
2018-02-10T18:06:12.234Z,33.93
2018-02-10T18:08:39.756Z,33.80
2018-02-10T18:11:07.269Z,35.40
2018-02-10T18:13:34.790Z,34.40
2018-02-10T18:16:02.321Z,34.90
2018-02-10T18:18:29.846Z,33.57
2018-02-10T18:20:57.403Z,33.73
2018-02-10T18:23:25.045Z,33.43
2018-02-10T18:25:52.696Z,34.03
2018-02-10T18:28:20.216Z,33.60
2018-02-10T18:30:47.763Z,35.30
2018-02-10T18:33:15.289Z,33.67
2018-02-10T18:35:42.800Z,34.83
2018-02-10T18:38:10.325Z,34.33
2018-02-10T18:40:37.952Z,32.87
2018-02-10T18:43:05.477Z,35.43
2018-02-10T18:45:32.992Z,35.60
2018-02-10T18:48:00.502Z,35.00
2018-02-10T18:50:28.052Z,35.07
2018-02-10T18:52:55.592Z,35.80
2018-02-10T18:55:23.135Z,35.00
2018-02-10T18:57:50.649Z,35.70
2018-02-10T19:00:18.172Z,35.70
2018-02-10T19:02:45.854Z,36.90
2018-02-10T19:05:13.395Z,36.00
2018-02-10T19:07:40.950Z,34.70
2018-02-10T19:10:08.582Z,36.00
2018-02-10T19:12:36.108Z,35.30
2018-02-10T19:15:03.637Z,35.90
2018-02-10T19:17:31.145Z,35.87
2018-02-10T19:19:58.657Z,36.03
2018-02-10T19:22:26.211Z,35.40
2018-02-10T19:24:54.306Z,35.50
2018-02-10T19:27:21.892Z,36.80
2018-02-10T19:29:49.431Z,34.60
2018-02-10T19:32:16.991Z,35.57
2018-02-10T19:34:44.517Z,36.23
2018-02-10T19:37:12.044Z,37.37
2018-02-10T19:39:39.560Z,34.63
2018-02-10T19:42:07.110Z,36.33
2018-02-10T19:44:34.652Z,36.63
2018-02-10T19:47:02.199Z,36.73
2018-02-10T19:49:29.748Z,36.53
2018-02-10T19:51:57.274Z,36.50
2018-02-10T19:54:24.817Z,36.90
2018-02-10T19:56:52.358Z,37.20
2018-02-10T19:59:19.989Z,37.73
2018-02-10T20:01:47.522Z,36.30
2018-02-10T20:04:15.049Z,37.13
2018-02-10T20:06:42.566Z,36.83
2018-02-10T20:09:10.084Z,35.77
2018-02-10T20:11:37.692Z,37.30
2018-02-10T20:14:05.244Z,37.60
2018-02-10T20:16:32.767Z,37.77
2018-02-10T20:19:00.286Z,37.07
2018-02-10T20:21:27.808Z,38.10
2018-02-10T20:23:55.333Z,36.83
2018-02-10T20:26:22.942Z,37.67
2018-02-10T20:28:50.502Z,36.17
2018-02-10T20:31:18.031Z,35.80
2018-02-10T20:33:45.642Z,36.73
2018-02-10T20:36:13.286Z,37.03
2018-02-10T20:38:40.845Z,37.13
2018-02-10T20:41:08.404Z,35.87
2018-02-10T20:43:35.923Z,34.83
2018-02-10T20:46:03.450Z,37.07
2018-02-10T20:48:30.971Z,37.13
2018-02-10T20:50:58.520Z,34.93
2018-02-10T20:53:26.165Z,35.33
2018-02-10T20:55:53.718Z,36.20
2018-02-10T20:58:21.240Z,36.87
2018-02-10T21:00:48.770Z,34.87
2018-02-10T21:03:16.343Z,36.47
2018-02-10T21:05:43.884Z,36.77
2018-02-10T21:08:11.489Z,36.93
2018-02-10T21:10:39.002Z,37.20
2018-02-10T21:13:06.525Z,38.17
2018-02-10T21:15:34.068Z,35.47
2018-02-10T21:18:01.687Z,36.17
2018-02-10T21:20:29.204Z,36.23
2018-02-10T21:22:56.824Z,36.70
2018-02-10T21:25:24.378Z,34.23
2018-02-10T21:27:51.943Z,35.93
2018-02-10T21:30:19.459Z,35.33
2018-02-10T21:32:47.004Z,34.57
2018-02-10T21:35:14.520Z,36.63
2018-02-10T21:37:42.082Z,35.97
2018-02-10T21:40:09.654Z,36.73
2018-02-10T21:42:37.189Z,36.80
2018-02-10T21:45:04.756Z,35.03
2018-02-10T21:47:32.349Z,35.93
2018-02-10T21:49:59.881Z,35.20
2018-02-10T21:52:27.396Z,35.33
2018-02-10T21:54:54.944Z,36.43
2018-02-10T21:57:22.500Z,35.90
2018-02-10T21:59:50.029Z,36.20
2018-02-10T22:02:17.556Z,34.87
2018-02-10T22:04:45.141Z,35.83
2018-02-10T22:07:12.680Z,37.07
2018-02-10T22:09:40.185Z,36.93
2018-02-10T22:12:07.701Z,36.60
2018-02-10T22:14:35.269Z,34.57
2018-02-10T22:17:02.784Z,37.07
2018-02-10T22:19:30.302Z,36.47
2018-02-10T22:21:57.841Z,36.27
2018-02-10T22:24:25.401Z,35.33
2018-02-10T22:26:52.960Z,34.97
2018-02-10T22:29:20.478Z,35.93
2018-02-10T22:31:48.049Z,36.60
2018-02-10T22:34:15.594Z,37.67
2018-02-10T22:36:43.121Z,36.87
2018-02-10T22:39:10.636Z,37.13
2018-02-10T22:41:38.162Z,36.70
2018-02-10T22:44:05.695Z,36.80
2018-02-10T22:46:33.249Z,36.93
2018-02-10T22:49:00.778Z,36.03
2018-02-10T22:51:28.397Z,48.25
2018-02-10T22:53:56.037Z,39.43
2018-02-10T22:56:23.581Z,37.53
2018-02-10T22:58:51.156Z,36.77
2018-02-10T23:01:18.707Z,36.83
2018-02-10T23:03:46.436Z,38.37
2018-02-10T23:06:13.985Z,35.70
2018-02-10T23:08:41.638Z,36.43
2018-02-10T23:11:09.162Z,38.40
2018-02-10T23:13:36.704Z,36.53
2018-02-10T23:16:04.216Z,37.83
2018-02-10T23:18:31.730Z,39.67
2018-02-10T23:20:59.269Z,37.67
2018-02-10T23:23:26.825Z,37.07
2018-02-10T23:25:54.525Z,38.20
2018-02-10T23:28:22.189Z,37.50
2018-02-10T23:30:49.712Z,38.30
2018-02-10T23:33:17.228Z,38.37
2018-02-10T23:35:44.742Z,37.77
2018-02-10T23:38:12.263Z,36.90
2018-02-10T23:40:39.801Z,39.20
2018-02-10T23:43:07.328Z,37.13
2018-02-10T23:45:34.853Z,38.23
2018-02-10T23:48:02.400Z,39.10
2018-02-10T23:50:29.916Z,37.57
2018-02-10T23:52:57.446Z,38.70
2018-02-10T23:55:25.044Z,37.40
2018-02-10T23:57:52.597Z,39.10
